sensor_id;sensor_type;location;lat;lon;timestamp;P1;durP1;ratioP1;P2;durP2;ratioP2
6205;SDS011;3136;48.788;9.772;2023-01-25T00:01:58;31.77;;;16.77;;
6205;SDS011;3136;48.788;9.772;2023-01-25T00:04:23;27.87;;;16.03;;
6205;SDS011;3136;48.788;9.772;2023-01-25T00:06:49;31.70;;;16.87;;
6205;SDS011;3136;48.788;9.772;2023-01-25T00:09:15;28.53;;;16.13;;
6205;SDS011;3136;48.788;9.772;2023-01-25T00:11:42;27.03;;;15.97;;
6205;SDS011;3136;48.788;9.772;2023-01-25T00:14:08;29.00;;;15.80;;
6205;SDS011;3136;48.788;9.772;2023-01-25T00:16:35;27.80;;;15.70;;
6205;SDS011;3136;48.788;9.772;2023-01-25T00:19:01;27.30;;;15.73;;
6205;SDS011;3136;48.788;9.772;2023-01-25T00:21:27;28.07;;;15.60;;
6205;SDS011;3136;48.788;9.772;2023-01-25T00:23:53;28.17;;;16.10;;
6205;SDS011;3136;48.788;9.772;2023-01-25T00:26:19;25.17;;;15.27;;
6205;SDS011;3136;48.788;9.772;2023-01-25T00:28:51;26.93;;;15.57;;
6205;SDS011;3136;48.788;9.772;2023-01-25T00:34:44;28.27;;;15.23;;
6205;SDS011;3136;48.788;9.772;2023-01-25T00:39:45;30.73;;;15.03;;
6205;SDS011;3136;48.788;9.772;2023-01-25T00:42:11;26.83;;;15.80;;
6205;SDS011;3136;48.788;9.772;2023-01-25T00:44:38;28.60;;;15.90;;
6205;SDS011;3136;48.788;9.772;2023-01-25T00:47:03;26.23;;;15.30;;
6205;SDS011;3136;48.788;9.772;2023-01-25T00:49:29;29.40;;;15.53;;
6205;SDS011;3136;48.788;9.772;2023-01-25T00:51:55;29.23;;;15.37;;
6205;SDS011;3136;48.788;9.772;2023-01-25T00:54:22;30.10;;;16.07;;
6205;SDS011;3136;48.788;9.772;2023-01-25T00:56:48;29.60;;;15.77;;
6205;SDS011;3136;48.788;9.772;2023-01-25T00:59:13;30.43;;;15.80;;
6205;SDS011;3136;48.788;9.772;2023-01-25T01:01:39;32.47;;;15.97;;
6205;SDS011;3136;48.788;9.772;2023-01-25T01:04:06;29.77;;;15.60;;
6205;SDS011;3136;48.788;9.772;2023-01-25T01:06:36;31.33;;;15.97;;
6205;SDS011;3136;48.788;9.772;2023-01-25T01:09:02;32.17;;;15.90;;
6205;SDS011;3136;48.788;9.772;2023-01-25T01:11:29;30.30;;;15.10;;
6205;SDS011;3136;48.788;9.772;2023-01-25T01:17:17;29.70;;;14.97;;
6205;SDS011;3136;48.788;9.772;2023-01-25T01:19:43;31.53;;;14.97;;
6205;SDS011;3136;48.788;9.772;2023-01-25T01:22:09;29.67;;;15.83;;
6205;SDS011;3136;48.788;9.772;2023-01-25T01:24:34;29.80;;;15.27;;
6205;SDS011;3136;48.788;9.772;2023-01-25T01:27:00;30.80;;;15.77;;
6205;SDS011;3136;48.788;9.772;2023-01-25T01:29:25;32.27;;;15.90;;
6205;SDS011;3136;48.788;9.772;2023-01-25T01:31:51;29.53;;;15.00;;
6205;SDS011;3136;48.788;9.772;2023-01-25T01:34:17;29.57;;;16.17;;
6205;SDS011;3136;48.788;9.772;2023-01-25T01:36:43;30.23;;;15.53;;
6205;SDS011;3136;48.788;9.772;2023-01-25T01:39:08;33.63;;;15.63;;
6205;SDS011;3136;48.788;9.772;2023-01-25T01:41:34;27.47;;;15.23;;
6205;SDS011;3136;48.788;9.772;2023-01-25T01:44:00;24.93;;;14.53;;
6205;SDS011;3136;48.788;9.772;2023-01-25T01:46:27;31.50;;;15.37;;
6205;SDS011;3136;48.788;9.772;2023-01-25T01:52:09;24.73;;;14.13;;
6205;SDS011;3136;48.788;9.772;2023-01-25T01:54:43;28.43;;;14.00;;
6205;SDS011;3136;48.788;9.772;2023-01-25T01:57:24;25.80;;;14.00;;
6205;SDS011;3136;48.788;9.772;2023-01-25T02:02:30;26.13;;;13.57;;
6205;SDS011;3136;48.788;9.772;2023-01-25T02:04:58;27.97;;;14.03;;
6205;SDS011;3136;48.788;9.772;2023-01-25T02:10:00;24.10;;;12.70;;
6205;SDS011;3136;48.788;9.772;2023-01-25T02:12:28;23.27;;;13.03;;
6205;SDS011;3136;48.788;9.772;2023-01-25T02:14:54;24.47;;;13.50;;
6205;SDS011;3136;48.788;9.772;2023-01-25T02:17:29;27.33;;;13.80;;
6205;SDS011;3136;48.788;9.772;2023-01-25T02:25:59;23.13;;;12.60;;
6205;SDS011;3136;48.788;9.772;2023-01-25T02:30:55;22.13;;;12.77;;
6205;SDS011;3136;48.788;9.772;2023-01-25T02:33:21;23.93;;;12.43;;
6205;SDS011;3136;48.788;9.772;2023-01-25T02:35:49;22.67;;;12.63;;
6205;SDS011;3136;48.788;9.772;2023-01-25T02:38:21;24.23;;;12.67;;
6205;SDS011;3136;48.788;9.772;2023-01-25T02:40:55;23.23;;;12.37;;
6205;SDS011;3136;48.788;9.772;2023-01-25T02:43:29;24.83;;;12.80;;
6205;SDS011;3136;48.788;9.772;2023-01-25T02:45:59;23.80;;;11.83;;
6205;SDS011;3136;48.788;9.772;2023-01-25T02:48:35;20.53;;;11.67;;
6205;SDS011;3136;48.788;9.772;2023-01-25T02:51:01;22.20;;;12.53;;
6205;SDS011;3136;48.788;9.772;2023-01-25T02:53:27;21.27;;;11.70;;
6205;SDS011;3136;48.788;9.772;2023-01-25T02:55:52;21.33;;;12.00;;
6205;SDS011;3136;48.788;9.772;2023-01-25T02:58:18;20.67;;;11.40;;
6205;SDS011;3136;48.788;9.772;2023-01-25T03:00:43;17.23;;;10.23;;
6205;SDS011;3136;48.788;9.772;2023-01-25T03:03:09;20.70;;;10.60;;
6205;SDS011;3136;48.788;9.772;2023-01-25T03:05:34;19.70;;;10.93;;
6205;SDS011;3136;48.788;9.772;2023-01-25T03:08:00;15.77;;;10.03;;
6205;SDS011;3136;48.788;9.772;2023-01-25T03:10:25;16.80;;;10.63;;
6205;SDS011;3136;48.788;9.772;2023-01-25T03:12:51;19.10;;;11.03;;
6205;SDS011;3136;48.788;9.772;2023-01-25T03:15:17;17.77;;;10.73;;
6205;SDS011;3136;48.788;9.772;2023-01-25T03:17:43;18.40;;;10.13;;
6205;SDS011;3136;48.788;9.772;2023-01-25T03:20:08;17.90;;;10.67;;
6205;SDS011;3136;48.788;9.772;2023-01-25T03:22:34;17.73;;;10.40;;
6205;SDS011;3136;48.788;9.772;2023-01-25T03:25:00;17.37;;;10.40;;
6205;SDS011;3136;48.788;9.772;2023-01-25T03:27:27;16.27;;;9.77;;
6205;SDS011;3136;48.788;9.772;2023-01-25T03:29:54;15.60;;;9.33;;
6205;SDS011;3136;48.788;9.772;2023-01-25T03:32:19;17.13;;;9.47;;
6205;SDS011;3136;48.788;9.772;2023-01-25T03:34:45;14.57;;;9.50;;
6205;SDS011;3136;48.788;9.772;2023-01-25T03:37:10;17.23;;;9.13;;
6205;SDS011;3136;48.788;9.772;2023-01-25T03:39:36;15.20;;;9.07;;
6205;SDS011;3136;48.788;9.772;2023-01-25T03:42:01;16.70;;;9.80;;
6205;SDS011;3136;48.788;9.772;2023-01-25T03:44:27;14.90;;;9.37;;
6205;SDS011;3136;48.788;9.772;2023-01-25T03:46:53;15.73;;;9.73;;
6205;SDS011;3136;48.788;9.772;2023-01-25T03:49:18;16.57;;;10.03;;
6205;SDS011;3136;48.788;9.772;2023-01-25T03:51:44;16.23;;;9.67;;
6205;SDS011;3136;48.788;9.772;2023-01-25T03:54:09;14.40;;;9.20;;
6205;SDS011;3136;48.788;9.772;2023-01-25T03:56:35;14.77;;;8.97;;
6205;SDS011;3136;48.788;9.772;2023-01-25T03:59:02;14.13;;;8.77;;
6205;SDS011;3136;48.788;9.772;2023-01-25T04:01:28;14.90;;;8.97;;
6205;SDS011;3136;48.788;9.772;2023-01-25T04:03:53;16.17;;;9.67;;
6205;SDS011;3136;48.788;9.772;2023-01-25T04:06:19;15.87;;;8.67;;
6205;SDS011;3136;48.788;9.772;2023-01-25T04:08:44;14.97;;;9.20;;
6205;SDS011;3136;48.788;9.772;2023-01-25T04:11:10;13.63;;;8.70;;
6205;SDS011;3136;48.788;9.772;2023-01-25T04:13:36;14.20;;;8.90;;
6205;SDS011;3136;48.788;9.772;2023-01-25T04:16:03;14.27;;;8.27;;
6205;SDS011;3136;48.788;9.772;2023-01-25T04:18:29;14.97;;;8.80;;
6205;SDS011;3136;48.788;9.772;2023-01-25T04:20:55;15.27;;;8.73;;
6205;SDS011;3136;48.788;9.772;2023-01-25T04:23:22;14.53;;;8.60;;
6205;SDS011;3136;48.788;9.772;2023-01-25T04:26:07;14.13;;;8.67;;
6205;SDS011;3136;48.788;9.772;2023-01-25T04:28:36;13.50;;;8.40;;
6205;SDS011;3136;48.788;9.772;2023-01-25T04:31:02;14.23;;;8.80;;
6205;SDS011;3136;48.788;9.772;2023-01-25T04:33:30;13.77;;;8.67;;
6205;SDS011;3136;48.788;9.772;2023-01-25T04:35:56;13.77;;;9.03;;
6205;SDS011;3136;48.788;9.772;2023-01-25T04:38:21;14.03;;;8.60;;
6205;SDS011;3136;48.788;9.772;2023-01-25T04:40:47;13.93;;;8.13;;
6205;SDS011;3136;48.788;9.772;2023-01-25T04:43:16;13.27;;;7.90;;
6205;SDS011;3136;48.788;9.772;2023-01-25T04:45:42;10.83;;;7.30;;
6205;SDS011;3136;48.788;9.772;2023-01-25T04:48:08;13.77;;;8.10;;
6205;SDS011;3136;48.788;9.772;2023-01-25T04:50:38;13.50;;;8.60;;
6205;SDS011;3136;48.788;9.772;2023-01-25T04:53:05;15.40;;;8.17;;
6205;SDS011;3136;48.788;9.772;2023-01-25T04:55:32;14.53;;;8.40;;
6205;SDS011;3136;48.788;9.772;2023-01-25T04:57:58;13.87;;;8.40;;
6205;SDS011;3136;48.788;9.772;2023-01-25T05:00:24;13.50;;;7.73;;
6205;SDS011;3136;48.788;9.772;2023-01-25T05:02:49;13.30;;;8.03;;
6205;SDS011;3136;48.788;9.772;2023-01-25T05:05:15;15.77;;;8.67;;
6205;SDS011;3136;48.788;9.772;2023-01-25T05:07:41;13.47;;;8.77;;
6205;SDS011;3136;48.788;9.772;2023-01-25T05:10:07;17.33;;;8.63;;
6205;SDS011;3136;48.788;9.772;2023-01-25T05:12:33;15.23;;;8.80;;
6205;SDS011;3136;48.788;9.772;2023-01-25T05:14:59;14.57;;;8.50;;
6205;SDS011;3136;48.788;9.772;2023-01-25T05:17:24;13.57;;;8.60;;
6205;SDS011;3136;48.788;9.772;2023-01-25T05:19:50;13.40;;;8.40;;
6205;SDS011;3136;48.788;9.772;2023-01-25T05:22:16;13.87;;;8.60;;
6205;SDS011;3136;48.788;9.772;2023-01-25T05:24:44;15.13;;;8.43;;
6205;SDS011;3136;48.788;9.772;2023-01-25T05:27:11;12.70;;;8.13;;
6205;SDS011;3136;48.788;9.772;2023-01-25T05:29:39;16.83;;;9.27;;
6205;SDS011;3136;48.788;9.772;2023-01-25T05:34:42;14.07;;;8.10;;
6205;SDS011;3136;48.788;9.772;2023-01-25T05:37:09;14.33;;;8.77;;
6205;SDS011;3136;48.788;9.772;2023-01-25T05:39:37;14.97;;;9.23;;
6205;SDS011;3136;48.788;9.772;2023-01-25T05:42:02;16.97;;;9.57;;
6205;SDS011;3136;48.788;9.772;2023-01-25T05:44:32;16.37;;;9.87;;
6205;SDS011;3136;48.788;9.772;2023-01-25T05:46:57;16.00;;;9.63;;
6205;SDS011;3136;48.788;9.772;2023-01-25T05:49:23;15.60;;;9.23;;
6205;SDS011;3136;48.788;9.772;2023-01-25T05:51:48;16.40;;;10.07;;
6205;SDS011;3136;48.788;9.772;2023-01-25T05:54:15;14.53;;;8.73;;
6205;SDS011;3136;48.788;9.772;2023-01-25T05:56:41;15.57;;;9.37;;
6205;SDS011;3136;48.788;9.772;2023-01-25T05:59:08;13.70;;;8.53;;
6205;SDS011;3136;48.788;9.772;2023-01-25T06:01:35;15.07;;;9.00;;
6205;SDS011;3136;48.788;9.772;2023-01-25T06:04:01;14.73;;;8.47;;
6205;SDS011;3136;48.788;9.772;2023-01-25T06:06:27;13.80;;;8.77;;
6205;SDS011;3136;48.788;9.772;2023-01-25T06:08:52;14.67;;;8.93;;
6205;SDS011;3136;48.788;9.772;2023-01-25T06:11:19;15.70;;;8.97;;
6205;SDS011;3136;48.788;9.772;2023-01-25T06:13:46;14.43;;;9.13;;
6205;SDS011;3136;48.788;9.772;2023-01-25T06:16:12;15.87;;;9.43;;
6205;SDS011;3136;48.788;9.772;2023-01-25T06:18:38;15.57;;;9.10;;
6205;SDS011;3136;48.788;9.772;2023-01-25T06:21:03;14.37;;;8.67;;
6205;SDS011;3136;48.788;9.772;2023-01-25T06:23:29;16.57;;;9.60;;
6205;SDS011;3136;48.788;9.772;2023-01-25T06:25:58;15.10;;;9.50;;
6205;SDS011;3136;48.788;9.772;2023-01-25T06:28:32;14.73;;;9.50;;
6205;SDS011;3136;48.788;9.772;2023-01-25T06:31:05;15.40;;;9.70;;
6205;SDS011;3136;48.788;9.772;2023-01-25T06:33:33;17.30;;;10.67;;
6205;SDS011;3136;48.788;9.772;2023-01-25T06:36:00;14.97;;;9.57;;
6205;SDS011;3136;48.788;9.772;2023-01-25T06:38:30;16.43;;;10.60;;
6205;SDS011;3136;48.788;9.772;2023-01-25T06:41:00;19.10;;;11.13;;
6205;SDS011;3136;48.788;9.772;2023-01-25T06:43:27;18.07;;;10.67;;
6205;SDS011;3136;48.788;9.772;2023-01-25T06:46:00;16.57;;;10.60;;
6205;SDS011;3136;48.788;9.772;2023-01-25T06:48:27;17.60;;;10.60;;
6205;SDS011;3136;48.788;9.772;2023-01-25T06:51:00;17.03;;;11.00;;
6205;SDS011;3136;48.788;9.772;2023-01-25T06:53:32;17.23;;;10.67;;
6205;SDS011;3136;48.788;9.772;2023-01-25T06:56:00;18.43;;;11.33;;
6205;SDS011;3136;48.788;9.772;2023-01-25T06:58:29;19.70;;;11.87;;
6205;SDS011;3136;48.788;9.772;2023-01-25T07:01:02;18.93;;;11.70;;
6205;SDS011;3136;48.788;9.772;2023-01-25T07:03:30;21.03;;;11.77;;
6205;SDS011;3136;48.788;9.772;2023-01-25T07:05:59;19.57;;;11.30;;
6205;SDS011;3136;48.788;9.772;2023-01-25T07:08:27;22.57;;;12.47;;
6205;SDS011;3136;48.788;9.772;2023-01-25T07:10:54;21.30;;;12.83;;
6205;SDS011;3136;48.788;9.772;2023-01-25T07:13:20;20.03;;;11.93;;
6205;SDS011;3136;48.788;9.772;2023-01-25T07:16:03;21.73;;;12.43;;
6205;SDS011;3136;48.788;9.772;2023-01-25T07:18:30;19.73;;;11.23;;
6205;SDS011;3136;48.788;9.772;2023-01-25T07:21:03;19.67;;;12.47;;
6205;SDS011;3136;48.788;9.772;2023-01-25T07:23:30;19.43;;;12.07;;
6205;SDS011;3136;48.788;9.772;2023-01-25T07:25:56;19.87;;;11.33;;
6205;SDS011;3136;48.788;9.772;2023-01-25T07:28:23;17.87;;;11.47;;
6205;SDS011;3136;48.788;9.772;2023-01-25T07:30:49;18.93;;;10.60;;
6205;SDS011;3136;48.788;9.772;2023-01-25T07:33:15;18.20;;;11.50;;
6205;SDS011;3136;48.788;9.772;2023-01-25T07:35:41;22.07;;;12.20;;
6205;SDS011;3136;48.788;9.772;2023-01-25T07:38:06;18.90;;;11.87;;
6205;SDS011;3136;48.788;9.772;2023-01-25T07:40:32;18.57;;;11.70;;
6205;SDS011;3136;48.788;9.772;2023-01-25T07:42:58;19.97;;;12.20;;
6205;SDS011;3136;48.788;9.772;2023-01-25T07:45:23;20.53;;;12.40;;
6205;SDS011;3136;48.788;9.772;2023-01-25T07:47:54;18.80;;;11.40;;
6205;SDS011;3136;48.788;9.772;2023-01-25T07:50:20;17.00;;;10.27;;
6205;SDS011;3136;48.788;9.772;2023-01-25T07:52:46;17.43;;;10.47;;
6205;SDS011;3136;48.788;9.772;2023-01-25T07:55:11;18.70;;;10.13;;
6205;SDS011;3136;48.788;9.772;2023-01-25T07:57:37;18.67;;;10.87;;
6205;SDS011;3136;48.788;9.772;2023-01-25T08:00:02;16.60;;;10.07;;
6205;SDS011;3136;48.788;9.772;2023-01-25T08:02:30;16.37;;;10.07;;
6205;SDS011;3136;48.788;9.772;2023-01-25T08:04:56;17.07;;;10.13;;
6205;SDS011;3136;48.788;9.772;2023-01-25T08:07:22;18.90;;;11.20;;
6205;SDS011;3136;48.788;9.772;2023-01-25T08:09:48;16.97;;;10.20;;
6205;SDS011;3136;48.788;9.772;2023-01-25T08:12:13;15.50;;;9.63;;
6205;SDS011;3136;48.788;9.772;2023-01-25T08:14:41;17.27;;;9.17;;
6205;SDS011;3136;48.788;9.772;2023-01-25T08:17:06;17.20;;;10.67;;
6205;SDS011;3136;48.788;9.772;2023-01-25T08:19:32;16.47;;;10.30;;
6205;SDS011;3136;48.788;9.772;2023-01-25T08:21:58;19.70;;;10.97;;
6205;SDS011;3136;48.788;9.772;2023-01-25T08:24:23;19.40;;;11.10;;
6205;SDS011;3136;48.788;9.772;2023-01-25T08:26:49;21.30;;;11.37;;
6205;SDS011;3136;48.788;9.772;2023-01-25T08:29:14;17.47;;;11.07;;
6205;SDS011;3136;48.788;9.772;2023-01-25T08:31:40;18.17;;;11.33;;
6205;SDS011;3136;48.788;9.772;2023-01-25T08:34:07;18.23;;;11.17;;
6205;SDS011;3136;48.788;9.772;2023-01-25T08:36:33;20.83;;;12.60;;
6205;SDS011;3136;48.788;9.772;2023-01-25T08:39:00;23.10;;;12.17;;
6205;SDS011;3136;48.788;9.772;2023-01-25T08:41:28;18.30;;;10.83;;
6205;SDS011;3136;48.788;9.772;2023-01-25T08:43:55;20.00;;;12.17;;
6205;SDS011;3136;48.788;9.772;2023-01-25T08:46:22;21.73;;;12.43;;
6205;SDS011;3136;48.788;9.772;2023-01-25T08:48:52;20.67;;;11.73;;
6205;SDS011;3136;48.788;9.772;2023-01-25T08:51:19;18.23;;;11.40;;
6205;SDS011;3136;48.788;9.772;2023-01-25T08:53:45;19.20;;;11.70;;
6205;SDS011;3136;48.788;9.772;2023-01-25T08:56:11;21.33;;;12.57;;
6205;SDS011;3136;48.788;9.772;2023-01-25T08:58:39;20.93;;;12.77;;
6205;SDS011;3136;48.788;9.772;2023-01-25T09:01:08;20.13;;;11.33;;
6205;SDS011;3136;48.788;9.772;2023-01-25T09:03:39;19.50;;;11.47;;
6205;SDS011;3136;48.788;9.772;2023-01-25T09:06:06;18.80;;;11.07;;
6205;SDS011;3136;48.788;9.772;2023-01-25T09:08:33;20.13;;;11.70;;
6205;SDS011;3136;48.788;9.772;2023-01-25T09:11:00;20.87;;;12.90;;
6205;SDS011;3136;48.788;9.772;2023-01-25T09:13:26;20.33;;;12.13;;
6205;SDS011;3136;48.788;9.772;2023-01-25T09:15:57;18.83;;;11.63;;
6205;SDS011;3136;48.788;9.772;2023-01-25T09:18:26;18.37;;;11.40;;
6205;SDS011;3136;48.788;9.772;2023-01-25T09:20:53;20.70;;;12.20;;
6205;SDS011;3136;48.788;9.772;2023-01-25T09:23:18;20.50;;;12.10;;
6205;SDS011;3136;48.788;9.772;2023-01-25T09:25:46;20.50;;;11.50;;
6205;SDS011;3136;48.788;9.772;2023-01-25T09:28:12;20.47;;;11.53;;
6205;SDS011;3136;48.788;9.772;2023-01-25T09:30:38;20.10;;;12.03;;
6205;SDS011;3136;48.788;9.772;2023-01-25T09:33:05;19.67;;;12.40;;
6205;SDS011;3136;48.788;9.772;2023-01-25T09:35:30;20.73;;;12.70;;
6205;SDS011;3136;48.788;9.772;2023-01-25T09:37:57;23.63;;;13.20;;
6205;SDS011;3136;48.788;9.772;2023-01-25T09:40:23;25.03;;;13.97;;
6205;SDS011;3136;48.788;9.772;2023-01-25T09:45:33;26.97;;;14.33;;
6205;SDS011;3136;48.788;9.772;2023-01-25T09:53:50;26.63;;;14.43;;
6205;SDS011;3136;48.788;9.772;2023-01-25T09:56:24;27.40;;;14.50;;
6205;SDS011;3136;48.788;9.772;2023-01-25T09:58:52;28.37;;;15.23;;
6205;SDS011;3136;48.788;9.772;2023-01-25T10:04:03;25.10;;;14.43;;
6205;SDS011;3136;48.788;9.772;2023-01-25T10:06:41;25.20;;;14.20;;
6205;SDS011;3136;48.788;9.772;2023-01-25T10:11:44;23.67;;;14.07;;
6205;SDS011;3136;48.788;9.772;2023-01-25T10:14:12;24.37;;;13.67;;
6205;SDS011;3136;48.788;9.772;2023-01-25T10:16:44;23.50;;;13.30;;
6205;SDS011;3136;48.788;9.772;2023-01-25T10:30:28;22.17;;;13.57;;
6205;SDS011;3136;48.788;9.772;2023-01-25T10:33:06;23.27;;;12.90;;
6205;SDS011;3136;48.788;9.772;2023-01-25T10:35:37;23.97;;;13.33;;
6205;SDS011;3136;48.788;9.772;2023-01-25T10:38:28;22.47;;;12.10;;
6205;SDS011;3136;48.788;9.772;2023-01-25T10:41:00;24.63;;;12.13;;
6205;SDS011;3136;48.788;9.772;2023-01-25T10:43:33;23.67;;;12.43;;
6205;SDS011;3136;48.788;9.772;2023-01-25T10:46:00;24.17;;;13.23;;
6205;SDS011;3136;48.788;9.772;2023-01-25T10:48:27;24.23;;;12.70;;
6205;SDS011;3136;48.788;9.772;2023-01-25T10:50:57;25.03;;;13.57;;
6205;SDS011;3136;48.788;9.772;2023-01-25T10:53:27;23.80;;;13.10;;
6205;SDS011;3136;48.788;9.772;2023-01-25T10:58:36;24.70;;;14.17;;
6205;SDS011;3136;48.788;9.772;2023-01-25T11:01:07;23.40;;;13.33;;
6205;SDS011;3136;48.788;9.772;2023-01-25T11:03:50;21.90;;;11.73;;
6205;SDS011;3136;48.788;9.772;2023-01-25T11:06:27;27.67;;;16.10;;
6205;SDS011;3136;48.788;9.772;2023-01-25T11:08:55;20.50;;;12.00;;
6205;SDS011;3136;48.788;9.772;2023-01-25T11:13:49;25.03;;;13.20;;
6205;SDS011;3136;48.788;9.772;2023-01-25T11:16:29;23.63;;;13.10;;
6205;SDS011;3136;48.788;9.772;2023-01-25T11:19:21;24.33;;;12.07;;
6205;SDS011;3136;48.788;9.772;2023-01-25T11:22:08;22.77;;;12.07;;
6205;SDS011;3136;48.788;9.772;2023-01-25T11:24:45;23.23;;;12.03;;
6205;SDS011;3136;48.788;9.772;2023-01-25T11:27:14;23.63;;;13.73;;
6205;SDS011;3136;48.788;9.772;2023-01-25T11:29:40;18.50;;;10.70;;
6205;SDS011;3136;48.788;9.772;2023-01-25T11:32:17;21.53;;;11.93;;
6205;SDS011;3136;48.788;9.772;2023-01-25T11:34:49;21.13;;;11.33;;
6205;SDS011;3136;48.788;9.772;2023-01-25T11:40:36;24.23;;;12.60;;
6205;SDS011;3136;48.788;9.772;2023-01-25T11:43:15;21.00;;;12.00;;
6205;SDS011;3136;48.788;9.772;2023-01-25T11:46:11;21.43;;;12.13;;
6205;SDS011;3136;48.788;9.772;2023-01-25T11:49:04;25.70;;;12.53;;
6205;SDS011;3136;48.788;9.772;2023-01-25T11:59:41;25.03;;;13.70;;
6205;SDS011;3136;48.788;9.772;2023-01-25T12:02:48;21.23;;;11.93;;
6205;SDS011;3136;48.788;9.772;2023-01-25T12:21:29;23.43;;;12.90;;
6205;SDS011;3136;48.788;9.772;2023-01-25T12:25:06;22.60;;;12.33;;
6205;SDS011;3136;48.788;9.772;2023-01-25T12:29:52;22.37;;;11.73;;
6205;SDS011;3136;48.788;9.772;2023-01-25T12:35:38;22.83;;;12.47;;
6205;SDS011;3136;48.788;9.772;2023-01-25T12:38:27;22.10;;;11.60;;
6205;SDS011;3136;48.788;9.772;2023-01-25T12:41:03;23.50;;;12.30;;
6205;SDS011;3136;48.788;9.772;2023-01-25T12:46:23;29.00;;;13.90;;
6205;SDS011;3136;48.788;9.772;2023-01-25T12:48:50;22.17;;;11.50;;
6205;SDS011;3136;48.788;9.772;2023-01-25T12:51:20;23.20;;;13.03;;
6205;SDS011;3136;48.788;9.772;2023-01-25T12:53:48;23.50;;;12.83;;
6205;SDS011;3136;48.788;9.772;2023-01-25T12:58:55;20.00;;;10.27;;
6205;SDS011;3136;48.788;9.772;2023-01-25T13:07:09;20.07;;;10.97;;
6205;SDS011;3136;48.788;9.772;2023-01-25T13:12:52;20.33;;;11.20;;
6205;SDS011;3136;48.788;9.772;2023-01-25T13:15:41;20.97;;;12.10;;
6205;SDS011;3136;48.788;9.772;2023-01-25T13:18:53;20.33;;;11.20;;
6205;SDS011;3136;48.788;9.772;2023-01-25T13:23:42;20.40;;;10.97;;
6205;SDS011;3136;48.788;9.772;2023-01-25T13:28:56;24.13;;;12.60;;
6205;SDS011;3136;48.788;9.772;2023-01-25T13:34:11;25.27;;;12.90;;
6205;SDS011;3136;48.788;9.772;2023-01-25T13:44:34;25.53;;;13.27;;
6205;SDS011;3136;48.788;9.772;2023-01-25T13:47:02;19.50;;;11.70;;
6205;SDS011;3136;48.788;9.772;2023-01-25T13:49:43;25.40;;;14.80;;
6205;SDS011;3136;48.788;9.772;2023-01-25T13:52:21;22.97;;;12.13;;
6205;SDS011;3136;48.788;9.772;2023-01-25T13:54:52;26.40;;;12.23;;
6205;SDS011;3136;48.788;9.772;2023-01-25T13:57:21;18.03;;;10.57;;
6205;SDS011;3136;48.788;9.772;2023-01-25T14:00:02;23.40;;;12.23;;
6205;SDS011;3136;48.788;9.772;2023-01-25T14:02:30;24.70;;;12.20;;
6205;SDS011;3136;48.788;9.772;2023-01-25T14:04:56;23.17;;;12.77;;
6205;SDS011;3136;48.788;9.772;2023-01-25T14:07:25;23.57;;;12.97;;
6205;SDS011;3136;48.788;9.772;2023-01-25T14:09:59;23.30;;;12.87;;
6205;SDS011;3136;48.788;9.772;2023-01-25T14:12:36;25.20;;;12.70;;
6205;SDS011;3136;48.788;9.772;2023-01-25T14:15:36;22.07;;;12.37;;
6205;SDS011;3136;48.788;9.772;2023-01-25T14:20:43;22.07;;;11.67;;
6205;SDS011;3136;48.788;9.772;2023-01-25T14:25:49;22.90;;;12.53;;
6205;SDS011;3136;48.788;9.772;2023-01-25T14:28:15;22.57;;;12.00;;
6205;SDS011;3136;48.788;9.772;2023-01-25T14:30:42;25.97;;;12.80;;
6205;SDS011;3136;48.788;9.772;2023-01-25T14:33:24;29.37;;;13.00;;
6205;SDS011;3136;48.788;9.772;2023-01-25T14:35:52;25.07;;;12.43;;
6205;SDS011;3136;48.788;9.772;2023-01-25T14:43:56;20.90;;;11.50;;
6205;SDS011;3136;48.788;9.772;2023-01-25T14:46:32;19.83;;;10.83;;
6205;SDS011;3136;48.788;9.772;2023-01-25T14:51:38;20.40;;;10.97;;
6205;SDS011;3136;48.788;9.772;2023-01-25T14:54:52;20.57;;;10.60;;
6205;SDS011;3136;48.788;9.772;2023-01-25T14:57:02;25.00;;;11.00;;
6205;SDS011;3136;48.788;9.772;2023-01-25T15:01:58;20.37;;;10.63;;
6205;SDS011;3136;48.788;9.772;2023-01-25T15:04:27;25.50;;;10.13;;
6205;SDS011;3136;48.788;9.772;2023-01-25T15:06:54;17.43;;;9.13;;
6205;SDS011;3136;48.788;9.772;2023-01-25T15:09:39;16.90;;;8.70;;
6205;SDS011;3136;48.788;9.772;2023-01-25T15:14:46;19.60;;;9.30;;
6205;SDS011;3136;48.788;9.772;2023-01-25T15:23:13;19.07;;;9.63;;
6205;SDS011;3136;48.788;9.772;2023-01-25T15:25:50;15.07;;;8.27;;
6205;SDS011;3136;48.788;9.772;2023-01-25T15:28:17;16.47;;;8.73;;
6205;SDS011;3136;48.788;9.772;2023-01-25T15:30:43;17.27;;;8.73;;
6205;SDS011;3136;48.788;9.772;2023-01-25T15:33:19;15.10;;;8.50;;
6205;SDS011;3136;48.788;9.772;2023-01-25T15:35:49;15.77;;;9.03;;
6205;SDS011;3136;48.788;9.772;2023-01-25T15:38:15;16.00;;;8.53;;
6205;SDS011;3136;48.788;9.772;2023-01-25T15:40:42;15.20;;;8.87;;
6205;SDS011;3136;48.788;9.772;2023-01-25T15:43:08;17.93;;;9.10;;
6205;SDS011;3136;48.788;9.772;2023-01-25T15:45:36;16.13;;;8.97;;
6205;SDS011;3136;48.788;9.772;2023-01-25T15:48:01;15.93;;;8.13;;
6205;SDS011;3136;48.788;9.772;2023-01-25T15:50:28;14.90;;;8.73;;
6205;SDS011;3136;48.788;9.772;2023-01-25T15:52:54;16.17;;;8.37;;
6205;SDS011;3136;48.788;9.772;2023-01-25T15:55:20;14.23;;;8.43;;
6205;SDS011;3136;48.788;9.772;2023-01-25T15:57:47;15.00;;;8.20;;
6205;SDS011;3136;48.788;9.772;2023-01-25T16:00:18;13.23;;;7.90;;
6205;SDS011;3136;48.788;9.772;2023-01-25T16:02:47;15.00;;;8.50;;
6205;SDS011;3136;48.788;9.772;2023-01-25T16:05:12;15.73;;;8.73;;
6205;SDS011;3136;48.788;9.772;2023-01-25T16:07:39;14.60;;;8.40;;
6205;SDS011;3136;48.788;9.772;2023-01-25T16:10:10;16.10;;;9.00;;
6205;SDS011;3136;48.788;9.772;2023-01-25T16:12:44;16.70;;;9.53;;
6205;SDS011;3136;48.788;9.772;2023-01-25T16:15:10;13.77;;;7.60;;
6205;SDS011;3136;48.788;9.772;2023-01-25T16:17:36;14.53;;;7.83;;
6205;SDS011;3136;48.788;9.772;2023-01-25T16:20:01;15.47;;;8.23;;
6205;SDS011;3136;48.788;9.772;2023-01-25T16:22:27;14.03;;;8.00;;
6205;SDS011;3136;48.788;9.772;2023-01-25T16:24:53;13.37;;;7.73;;
6205;SDS011;3136;48.788;9.772;2023-01-25T16:27:18;13.63;;;7.63;;
6205;SDS011;3136;48.788;9.772;2023-01-25T16:29:49;12.60;;;7.23;;
6205;SDS011;3136;48.788;9.772;2023-01-25T16:32:15;13.70;;;7.53;;
6205;SDS011;3136;48.788;9.772;2023-01-25T16:34:41;13.70;;;7.70;;
6205;SDS011;3136;48.788;9.772;2023-01-25T16:37:08;14.97;;;7.57;;
6205;SDS011;3136;48.788;9.772;2023-01-25T16:39:38;12.67;;;6.97;;
6205;SDS011;3136;48.788;9.772;2023-01-25T16:42:04;12.00;;;6.97;;
6205;SDS011;3136;48.788;9.772;2023-01-25T16:44:29;12.97;;;6.83;;
6205;SDS011;3136;48.788;9.772;2023-01-25T16:46:55;14.97;;;7.67;;
6205;SDS011;3136;48.788;9.772;2023-01-25T16:49:21;14.27;;;8.07;;
6205;SDS011;3136;48.788;9.772;2023-01-25T16:51:50;12.13;;;7.13;;
6205;SDS011;3136;48.788;9.772;2023-01-25T16:54:16;14.43;;;7.80;;
6205;SDS011;3136;48.788;9.772;2023-01-25T16:56:44;12.90;;;7.50;;
6205;SDS011;3136;48.788;9.772;2023-01-25T16:59:10;22.27;;;11.03;;
6205;SDS011;3136;48.788;9.772;2023-01-25T17:01:36;33.93;;;17.17;;
6205;SDS011;3136;48.788;9.772;2023-01-25T17:04:03;17.30;;;9.70;;
6205;SDS011;3136;48.788;9.772;2023-01-25T17:06:31;22.97;;;12.17;;
6205;SDS011;3136;48.788;9.772;2023-01-25T17:08:59;22.00;;;10.80;;
6205;SDS011;3136;48.788;9.772;2023-01-25T17:11:26;12.20;;;7.50;;
6205;SDS011;3136;48.788;9.772;2023-01-25T17:13:54;26.33;;;12.53;;
6205;SDS011;3136;48.788;9.772;2023-01-25T17:16:22;13.40;;;7.83;;
6205;SDS011;3136;48.788;9.772;2023-01-25T17:18:54;13.23;;;7.90;;
6205;SDS011;3136;48.788;9.772;2023-01-25T17:21:22;39.37;;;15.53;;
6205;SDS011;3136;48.788;9.772;2023-01-25T17:23:47;24.50;;;10.53;;
6205;SDS011;3136;48.788;9.772;2023-01-25T17:26:14;113.43;;;40.43;;
6205;SDS011;3136;48.788;9.772;2023-01-25T17:28:41;79.90;;;32.87;;
6205;SDS011;3136;48.788;9.772;2023-01-25T17:31:14;25.77;;;12.00;;